Time;durP1;ratioP1;P1;durP2;ratioP2;P2;SDS_P1;SDS_P2;PMS_P1;PMS_P2;Temp;Humidity;BMP_temperature;BMP_pressure;BME280_temperature;BME280_humidity;BME280_pressure;Samples;Min_cycle;Max_cycle;Signal;HPM_P1;HPM_P2
2021/06/28 00:01:45;;;;;;;15.28;11.53;;;;;;;17.57;64.45;100550.13;127202;1105;22518;-81
2021/06/28 00:04:15;;;;;;;17.95;14.43;;;;;;;17.57;64.44;100547.45;127226;1105;23268;-81
2021/06/28 00:06:47;;;;;;;18.45;13.13;;;;;;;17.55;64.15;100547.65;127279;1105;22417;-81
2021/06/28 00:09:19;;;;;;;13.98;11.60;;;;;;;17.53;64.33;100543.56;127164;1105;22858;-81
2021/06/28 00:11:49;;;;;;;13.75;11.48;;;;;;;17.50;63.91;100538.64;127372;1105;22431;-82
2021/06/28 00:14:21;;;;;;;12.63;10.98;;;;;;;17.46;64.41;100537.39;127324;1101;22420;-82
2021/06/28 00:16:54;;;;;;;19.18;12.73;;;;;;;17.46;64.26;100538.24;127360;1102;22481;-81
2021/06/28 00:19:25;;;;;;;16.05;11.53;;;;;;;17.45;64.58;100538.44;127368;1105;22523;-81
2021/06/28 00:21:56;;;;;;;15.20;13.68;;;;;;;17.39;64.20;100532.91;127595;1105;22444;-81
2021/06/28 00:24:27;;;;;;;15.03;12.13;;;;;;;17.30;64.38;100534.15;127579;1105;22425;-80
2021/06/28 00:26:56;;;;;;;17.20;12.75;;;;;;;17.23;63.87;100533.34;127755;1100;22436;-80
2021/06/28 00:29:26;;;;;;;13.40;12.10;;;;;;;17.15;64.23;100534.35;127845;1101;22414;-80
2021/06/28 00:31:56;;;;;;;13.33;12.00;;;;;;;17.11;64.35;100545.66;127830;1101;22410;-81
2021/06/28 00:34:26;;;;;;;14.40;12.95;;;;;;;17.06;64.16;100538.28;127903;1101;22437;-81
2021/06/28 00:36:57;;;;;;;12.88;11.68;;;;;;;17.04;64.33;100542.98;127908;1098;22391;-81
2021/06/28 00:39:30;;;;;;;15.53;12.45;;;;;;;17.03;64.54;100536.02;128236;1098;22375;-81
2021/06/28 00:42:00;;;;;;;13.53;11.90;;;;;;;17.02;64.36;100541.55;128229;1098;22384;-81
2021/06/28 00:44:30;;;;;;;14.38;12.75;;;;;;;16.99;64.49;100542.77;128220;1098;24511;-80
2021/06/28 00:47:00;;;;;;;14.53;11.83;;;;;;;16.97;64.47;100541.36;128250;1098;24517;-81
2021/06/28 00:49:30;;;;;;;14.05;12.25;;;;;;;16.92;64.42;100540.09;128203;1098;22369;-81
2021/06/28 00:52:00;;;;;;;11.40;10.13;;;;;;;16.87;64.71;100545.24;127898;1101;22401;-81
2021/06/28 00:54:30;;;;;;;16.57;11.80;;;;;;;16.84;65.06;100547.50;127909;1101;22478;-82
2021/06/28 00:57:02;;;;;;;14.83;12.10;;;;;;;16.83;65.30;100543.20;127363;1101;22500;-81
2021/06/28 00:59:33;;;;;;;12.78;11.38;;;;;;;16.80;65.35;100544.42;127761;1101;22401;-82
2021/06/28 01:02:06;;;;;;;15.13;12.18;;;;;;;16.78;65.23;100542.98;127713;1101;22398;-81
2021/06/28 01:04:36;;;;;;;;;;;;;;;16.70;65.01;100549.30;127788;1101;22446;-80
2021/06/28 01:07:06;;;;;;;13.17;11.80;;;;;;;16.64;65.72;100550.92;127842;1102;21285;-80
2021/06/28 01:09:36;;;;;;;16.05;13.50;;;;;;;16.64;65.84;100550.11;127806;1101;22417;-80
2021/06/28 01:12:07;;;;;;;17.93;12.65;;;;;;;16.63;65.68;100548.48;127757;1101;23006;-80
2021/06/28 01:14:37;;;;;;;14.80;12.70;;;;;;;16.63;66.31;100551.14;127786;1102;22503;-81
2021/06/28 01:17:12;;;;;;;15.75;13.13;;;;;;;16.61;66.30;100546.00;127901;1101;22417;-81
2021/06/28 01:19:53;;;;;;;14.93;12.80;;;;;;;16.59;66.58;100547.21;127945;1101;22398;-81
2021/06/28 01:22:26;;;;;;;14.68;12.88;;;;;;;16.58;66.40;100548.25;127880;1101;22470;-82
2021/06/28 01:24:58;;;;;;;13.75;12.35;;;;;;;16.56;66.63;100544.95;127783;1101;22379;-82
2021/06/28 01:27:29;;;;;;;13.35;12.03;;;;;;;16.56;66.53;100550.28;127834;1101;24208;-82
2021/06/28 01:30:00;;;;;;;13.33;11.85;;;;;;;16.54;66.28;100547.02;127852;1098;22740;-81
2021/06/28 01:32:30;;;;;;;15.98;12.15;;;;;;;16.53;66.51;100553.34;128114;1101;22423;-82
2021/06/28 01:35:05;;;;;;;13.95;12.55;;;;;;;16.52;66.74;100554.38;127781;1101;23164;-82
2021/06/28 01:37:35;;;;;;;14.23;11.83;;;;;;;16.46;66.54;100558.67;127710;1105;22525;-81
2021/06/28 01:40:09;;;;;;;13.90;12.50;;;;;;;16.41;67.05;100561.95;127766;1104;22414;-82
2021/06/28 01:42:40;;;;;;;12.98;11.70;;;;;;;16.39;67.15;100564.02;127796;1104;22411;-82
2021/06/28 01:45:23;;;;;;;13.88;11.80;;;;;;;16.39;67.41;100563.16;127651;1105;22426;-82
2021/06/28 01:47:57;;;;;;;13.98;10.98;;;;;;;16.39;67.48;100568.50;127173;1105;22444;-82
2021/06/28 01:50:31;;;;;;;25.60;11.93;;;;;;;16.38;67.44;100565.02;127242;1105;22396;-81
2021/06/28 01:53:03;;;;;;;12.95;11.73;;;;;;;16.39;67.61;100566.67;127656;1101;22395;-81
2021/06/28 01:55:34;;;;;;;15.83;12.00;;;;;;;16.39;67.62;100558.68;127422;1101;22420;-82
2021/06/28 01:58:09;;;;;;;12.33;11.13;;;;;;;16.37;67.66;100560.71;127751;1101;22506;-81
2021/06/28 02:00:53;;;;;;;15.08;10.53;;;;;;;16.35;67.33;100556.59;127755;1101;22417;-82
2021/06/28 02:03:25;;;;;;;12.73;11.48;;;;;;;16.31;67.52;100558.02;127774;1101;22566;-81
2021/06/28 02:05:59;;;;;;;14.48;11.28;;;;;;;16.27;67.80;100559.45;127869;1101;22398;-82
2021/06/28 02:08:32;;;;;;;13.83;11.58;;;;;;;16.23;67.93;100554.52;127955;1101;22391;-82
2021/06/28 02:11:06;;;;;;;13.83;10.50;;;;;;;16.23;68.07;100559.03;128181;1099;22447;-82
2021/06/28 02:13:38;;;;;;;13.05;11.60;;;;;;;16.20;68.18;100559.43;128233;1098;23179;-82
2021/06/28 02:16:08;;;;;;;13.18;10.38;;;;;;;16.20;68.25;100559.43;128245;1098;22401;-82
2021/06/28 02:18:39;;;;;;;;;;;;;;;16.19;68.44;100547.95;128409;1098;22362;-83
2021/06/28 02:21:12;;;;;;;12.40;11.30;;;;;;;16.20;68.43;100551.44;128282;1098;22490;-82
2021/06/28 02:23:42;;;;;;;15.53;11.23;;;;;;;16.17;68.54;100547.31;128273;1096;22947;-82
2021/06/28 02:26:14;;;;;;;14.05;11.83;;;;;;;16.17;68.34;100554.49;128170;1101;23168;-82
2021/06/28 02:28:48;;;;;;;16.13;11.43;;;;;;;16.14;68.39;100547.71;128159;1100;23219;-81
2021/06/28 02:31:23;;;;;;;13.90;11.45;;;;;;;16.12;68.24;100551.59;128174;1099;22472;-82
2021/06/28 02:33:55;;;;;;;12.93;11.23;;;;;;;16.07;68.38;100543.39;128169;1101;22787;-82
2021/06/28 02:36:27;;;;;;;14.10;12.43;;;;;;;16.05;68.34;100551.56;128145;1101;22397;-82
2021/06/28 02:39:07;;;;;;;14.75;12.28;;;;;;;16.00;68.33;100544.17;127787;1101;24393;-82
2021/06/28 02:41:37;;;;;;;13.68;12.30;;;;;;;16.02;68.71;100548.48;127836;1101;24556;-83
2021/06/28 02:44:08;;;;;;;16.60;11.20;;;;;;;16.02;68.54;100546.63;127958;1098;24543;-82
2021/06/28 02:46:43;;;;;;;12.80;11.50;;;;;;;16.04;68.76;100546.45;128185;1098;22387;-82
2021/06/28 02:49:13;;;;;;;19.90;14.70;;;;;;;16.07;68.76;100549.53;128179;1098;22390;-82
2021/06/28 02:51:45;;;;;;;14.23;12.28;;;;;;;16.11;68.59;100548.11;127866;1101;22405;-81
2021/06/28 02:54:16;;;;;;;14.33;12.98;;;;;;;16.10;68.47;100543.81;127338;1105;22453;-82
2021/06/28 02:56:46;;;;;;;14.40;11.83;;;;;;;16.08;68.36;100540.51;127251;1104;22404;-82
2021/06/28 02:59:20;;;;;;;14.73;13.18;;;;;;;16.06;68.25;100541.72;127274;1104;22397;-81
2021/06/28 03:01:50;;;;;;;17.07;11.73;;;;;;;16.05;68.40;100540.09;127150;1108;22572;-82
2021/06/28 03:04:20;;;;;;;14.95;11.90;;;;;;;16.08;68.69;100542.36;127154;1108;22424;-81
2021/06/28 03:06:52;;;;;;;13.40;11.00;;;;;;;16.14;68.31;100546.89;127187;1108;24241;-81
2021/06/28 03:09:25;;;;;;;13.93;12.53;;;;;;;16.20;68.46;100546.11;127157;1105;24570;-81
2021/06/28 03:11:55;;;;;;;14.00;12.43;;;;;;;16.23;68.26;100543.04;127193;1105;24331;-81
2021/06/28 03:14:25;;;;;;;14.27;11.07;;;;;;;16.25;68.46;100540.98;127332;1105;24303;-80
2021/06/28 03:16:55;;;;;;;18.07;12.27;;;;;;;16.29;68.08;100544.88;127446;1105;22416;-80
2021/06/28 03:19:37;;;;;;;19.13;13.35;;;;;;;16.35;68.28;100548.59;127785;1101;24248;-81
2021/06/28 03:22:07;;;;;;;17.25;12.68;;;;;;;16.35;67.97;100545.93;127914;1101;22516;-83
2021/06/28 03:24:37;;;;;;;18.90;13.20;;;;;;;16.40;68.08;100549.65;127861;1101;22848;-83
2021/06/28 03:27:07;;;;;;;17.93;13.75;;;;;;;16.41;67.87;100547.80;127888;1101;22415;-82
2021/06/28 03:29:37;;;;;;;13.63;12.10;;;;;;;16.46;68.10;100542.66;127825;1101;22394;-81
2021/06/28 03:32:09;;;;;;;13.43;11.28;;;;;;;16.56;68.08;100558.28;127421;1101;24524;-81
2021/06/28 03:34:39;;;;;;;13.00;11.53;;;;;;;16.65;68.30;100554.41;127838;1101;22396;-80
2021/06/28 03:37:09;;;;;;;16.88;12.68;;;;;;;16.75;67.97;100552.20;127759;1101;22421;-81
2021/06/28 03:39:39;;;;;;;14.38;12.15;;;;;;;16.83;67.87;100549.35;127723;1101;22520;-82
2021/06/28 03:42:09;;;;;;;13.25;11.83;;;;;;;16.93;67.49;100548.95;127822;1101;22430;-82
2021/06/28 03:44:40;;;;;;;14.63;12.48;;;;;;;17.00;67.16;100554.30;127897;1101;22423;-83
2021/06/28 03:47:11;;;;;;;;;;;;;;;16.92;66.74;100553.44;127905;1101;22433;-83
2021/06/28 03:49:40;;;;;;;15.15;12.53;;;;;;;16.93;67.26;100540.95;127808;1101;21522;-80
2021/06/28 03:52:10;;;;;;;14.50;13.10;;;;;;;17.00;67.18;100548.95;127876;1101;22687;-81
2021/06/28 03:54:40;;;;;;;13.65;12.35;;;;;;;17.09;67.08;100548.55;127921;1098;22404;-80
2021/06/28 03:57:10;;;;;;;13.28;11.98;;;;;;;17.18;66.46;100546.47;128266;1098;22952;-80
2021/06/28 03:59:40;;;;;;;14.78;13.28;;;;;;;17.24;66.50;100550.17;128262;1098;22388;-80
2021/06/28 04:02:13;;;;;;;13.40;12.20;;;;;;;17.29;66.70;100545.83;128260;1098;24540;-81
2021/06/28 04:04:48;;;;;;;;;;;;;;;17.36;66.37;100543.16;127911;1098;22922;-81
2021/06/28 04:07:18;;;;;;;14.63;13.13;;;;;;;17.45;66.61;100541.92;128186;1098;22465;-81
2021/06/28 04:09:48;;;;;;;15.55;11.75;;;;;;;17.52;66.26;100540.05;127889;1100;22721;-82
2021/06/28 04:12:18;;;;;;;20.13;13.68;;;;;;;17.59;66.04;100548.05;127773;1101;22513;-83
2021/06/28 04:14:48;;;;;;;13.85;12.38;;;;;;;17.63;66.13;100538.61;127793;1101;22419;-83
2021/06/28 04:17:18;;;;;;;18.63;14.15;;;;;;;17.65;66.18;100545.36;127296;1105;22428;-83
2021/06/28 04:19:48;;;;;;;16.37;14.00;;;;;;;17.68;65.93;100544.13;126957;1106;22432;-83
2021/06/28 04:22:18;;;;;;;14.90;13.40;;;;;;;17.63;65.83;100543.95;127226;1106;22455;-83
2021/06/28 04:24:49;;;;;;;17.73;13.83;;;;;;;17.58;65.86;100549.09;127195;1108;22511;-82
2021/06/28 04:27:18;;;;;;;17.80;14.88;;;;;;;17.61;66.31;100554.02;127278;1105;23876;-83
2021/06/28 04:29:48;;;;;;;31.53;28.40;;;;;;;17.66;66.27;100546.21;127326;1105;22431;-83
2021/06/28 04:32:18;;;;;;;25.63;16.78;;;;;;;17.71;66.27;100549.06;127290;1103;22991;-82
2021/06/28 04:34:54;;;;;;;16.57;13.67;;;;;;;17.75;66.12;100547.60;127361;1104;25082;-83
2021/06/28 04:37:26;;;;;;;16.75;15.03;;;;;;;17.71;65.42;100546.39;127339;1101;22490;-82
2021/06/28 04:39:56;;;;;;;16.18;14.53;;;;;;;17.69;65.68;100548.44;127751;1101;24544;-81
2021/06/28 04:42:29;;;;;;;16.53;14.83;;;;;;;17.70;65.66;100550.09;127885;1101;22379;-81
2021/06/28 04:45:00;;;;;;;16.30;14.63;;;;;;;17.70;65.85;100555.44;128224;1101;22394;-82
2021/06/28 04:47:30;;;;;;;16.28;14.78;;;;;;;17.74;65.86;100551.31;127914;1098;22405;-83
2021/06/28 04:50:04;;;;;;;17.40;15.55;;;;;;;17.78;65.63;100546.40;127819;1101;22495;-83
2021/06/28 04:52:36;;;;;;;15.85;13.75;;;;;;;17.83;65.58;100547.42;127332;1105;22436;-82
2021/06/28 04:55:10;;;;;;;15.73;14.18;;;;;;;17.93;65.44;100549.66;127778;1105;25091;-82
2021/06/28 04:57:43;;;;;;;18.85;14.80;;;;;;;17.99;65.78;100543.44;127370;1105;22423;-83
2021/06/28 05:00:17;;;;;;;17.00;14.93;;;;;;;18.09;65.99;100549.18;127432;1105;22420;-81
2021/06/28 05:02:50;;;;;;;16.33;14.63;;;;;;;18.20;65.40;100547.69;127198;1105;22417;-83
2021/06/28 05:05:21;;;;;;;15.90;13.85;;;;;;;18.32;65.28;100548.63;127328;1102;22399;-82
2021/06/28 05:08:02;;;;;;;15.67;13.63;;;;;;;18.43;65.56;100552.51;127459;1101;23145;-82
2021/06/28 05:10:32;;;;;;;16.20;14.08;;;;;;;18.56;65.36;100552.43;127911;1101;22401;-81
2021/06/28 05:13:02;;;;;;;16.48;13.50;;;;;;;18.74;65.57;100549.04;127857;1101;22420;-81
2021/06/28 05:15:32;;;;;;;19.28;17.13;;;;;;;18.94;65.00;100556.11;127835;1101;22631;-82
2021/06/28 05:18:05;;;;;;;17.95;14.45;;;;;;;19.08;64.31;100544.25;127883;1101;23979;-81
2021/06/28 05:20:35;;;;;;;22.58;15.03;;;;;;;19.25;64.56;100555.22;127924;1101;22362;-81
2021/06/28 05:23:05;;;;;;;17.95;14.35;;;;;;;19.37;64.33;100556.16;128175;1098;24540;-81
2021/06/28 05:25:35;;;;;;;15.23;13.58;;;;;;;19.48;63.68;100557.28;127850;1101;22404;-81
2021/06/28 05:28:06;;;;;;;18.65;14.43;;;;;;;19.59;63.46;100548.50;127818;1101;22400;-82
2021/06/28 05:30:36;;;;;;;14.83;13.28;;;;;;;19.73;63.41;100550.05;127768;1100;24524;-82
2021/06/28 05:33:06;;;;;;;19.20;13.90;;;;;;;19.96;62.67;100553.92;128218;1101;22398;-81
2021/06/28 05:35:38;;;;;;;27.80;14.37;;;;;;;20.17;62.72;100555.30;127814;1101;22408;-81
2021/06/28 05:38:08;;;;;;;18.48;14.18;;;;;;;20.41;62.35;100561.58;127860;1101;24549;-80
2021/06/28 05:40:38;;;;;;;20.23;14.65;;;;;;;20.65;62.04;100552.58;127788;1101;23334;-82
2021/06/28 05:43:08;;;;;;;19.00;13.20;;;;;;;21.05;62.07;100551.96;127789;1101;22426;-83
2021/06/28 05:45:38;;;;;;;21.85;14.13;;;;;;;21.60;60.67;100554.34;127920;1101;22503;-80
2021/06/28 05:48:09;;;;;;;17.15;14.38;;;;;;;22.16;59.85;100560.11;127944;1101;22415;-81
2021/06/28 05:50:39;;;;;;;18.55;14.50;;;;;;;22.77;58.52;100565.79;127931;1101;22488;-81
2021/06/28 05:53:10;;;;;;;14.67;13.13;;;;;;;23.32;56.50;100570.45;127898;1101;22414;-82
2021/06/28 05:55:41;;;;;;;23.83;13.70;;;;;;;23.81;55.55;100567.94;128135;1101;22417;-81
2021/06/28 05:58:12;;;;;;;17.07;12.87;;;;;;;24.37;53.74;100573.20;128213;1100;22390;-81
2021/06/28 06:00:42;;;;;;;20.95;15.78;;;;;;;24.85;52.31;100574.22;128216;1098;22393;-81
2021/06/28 06:03:12;;;;;;;20.13;14.65;;;;;;;25.22;50.77;100578.86;128283;1098;22410;-82
2021/06/28 06:05:42;;;;;;;21.05;13.55;;;;;;;25.58;49.83;100577.20;128270;1098;22398;-83
2021/06/28 06:08:12;;;;;;;17.73;11.25;;;;;;;26.02;48.72;100580.45;128303;1098;22385;-82
2021/06/28 06:10:42;;;;;;;17.45;9.33;;;;;;;26.54;47.11;100576.00;128314;1098;22388;-83
2021/06/28 06:13:12;;;;;;;11.90;6.83;;;;;;;27.00;45.37;100573.33;127914;1100;24640;-78
2021/06/28 06:15:42;;;;;;;8.85;5.40;;;;;;;27.29;43.70;100586.34;127582;1101;22417;-79
2021/06/28 06:18:12;;;;;;;7.83;4.50;;;;;;;27.28;41.81;100590.95;127875;1101;23402;-78
2021/06/28 06:20:43;;;;;;;15.98;4.65;;;;;;;27.23;41.30;100595.59;127481;1105;22469;-78
2021/06/28 06:23:15;;;;;;;6.48;3.53;;;;;;;27.23;40.79;100603.73;127098;1105;22804;-79
2021/06/28 06:25:46;;;;;;;6.38;3.65;;;;;;;27.30;40.66;100596.93;126847;1108;22456;-78
2021/06/28 06:28:16;;;;;;;4.70;3.58;;;;;;;27.51;40.12;100603.13;126510;1108;24751;-77
2021/06/28 06:30:46;;;;;;;6.53;3.80;;;;;;;27.79;39.43;100604.46;126746;1108;22429;-77
2021/06/28 06:33:16;;;;;;;5.95;4.20;;;;;;;28.05;39.04;100601.63;127012;1107;24580;-78
2021/06/28 06:35:46;;;;;;;4.55;3.48;;;;;;;28.30;38.74;100601.52;127090;1108;22573;-78
2021/06/28 06:38:16;;;;;;;12.55;3.60;;;;;;;28.74;37.90;100595.29;126770;1108;22474;-78
2021/06/28 06:40:48;;;;;;;4.85;3.90;;;;;;;29.13;36.59;100596.39;127303;1105;22550;-78
2021/06/28 06:43:19;;;;;;;5.43;3.78;;;;;;;29.45;35.55;100606.67;126973;1105;23457;-77
2021/06/28 06:45:53;;;;;;;;;;;;;;;29.53;34.64;100609.59;127282;1101;22507;-78
2021/06/28 06:48:23;;;;;;;5.85;4.05;;;;;;;29.71;35.92;100610.78;127573;1101;21279;-78
2021/06/28 06:50:53;;;;;;;12.45;4.78;;;;;;;29.88;34.93;100607.59;127515;1101;22848;-78
2021/06/28 06:53:23;;;;;;;4.68;3.55;;;;;;;29.88;34.90;100606.78;127455;1101;22457;-78
2021/06/28 06:55:54;;;;;;;10.30;3.68;;;;;;;29.88;34.26;100614.95;127546;1101;22386;-78
2021/06/28 06:58:24;;;;;;;5.80;3.78;;;;;;;29.80;34.43;100610.16;127302;1105;22413;-79
2021/06/28 07:00:54;;;;;;;6.27;3.63;;;;;;;29.69;34.66;100612.16;127112;1101;24225;-81
2021/06/28 07:03:24;;;;;;;6.30;3.63;;;;;;;29.64;34.20;100609.52;127897;1101;22429;-78
2021/06/28 07:05:55;;;;;;;4.05;3.13;;;;;;;29.66;33.87;100610.05;128009;1101;23417;-78
2021/06/28 07:08:25;;;;;;;5.33;3.93;;;;;;;29.73;33.52;100621.40;127898;1101;22442;-78
2021/06/28 07:10:56;;;;;;;6.40;3.48;;;;;;;29.89;33.72;100614.68;127931;1101;22407;-78
2021/06/28 07:13:26;;;;;;;8.00;3.53;;;;;;;29.99;34.60;100611.83;127996;1101;22425;-78
2021/06/28 07:15:57;;;;;;;6.35;4.18;;;;;;;30.22;34.77;100609.38;127722;1101;22456;-78
2021/06/28 07:18:27;;;;;;;8.97;4.47;;;;;;;30.42;34.00;100614.57;127805;1101;22416;-78
2021/06/28 07:20:57;;;;;;;5.48;3.90;;;;;;;30.57;33.80;100610.80;127525;1101;22870;-78
2021/06/28 07:23:27;;;;;;;7.17;4.10;;;;;;;30.61;33.36;100613.74;127574;1101;22388;-78
2021/06/28 07:25:58;;;;;;;4.55;4.03;;;;;;;30.83;32.76;100616.71;127124;1105;23448;-77
2021/06/28 07:28:29;;;;;;;4.70;3.65;;;;;;;30.99;32.31;100621.91;127135;1104;22436;-77
2021/06/28 07:31:00;;;;;;;10.55;4.33;;;;;;;31.19;32.14;100610.67;127113;1105;24691;-77
2021/06/28 07:33:33;;;;;;;6.68;3.80;;;;;;;31.35;31.95;100617.48;127055;1101;24578;-78
2021/06/28 07:36:05;;;;;;;4.07;3.20;;;;;;;31.50;31.66;100607.41;127868;1101;22453;-77
2021/06/28 07:38:34;;;;;;;7.08;4.03;;;;;;;31.56;31.10;100614.41;127546;1098;22376;-79
2021/06/28 07:41:06;;;;;;;9.30;3.65;;;;;;;31.54;31.72;100619.34;128105;1098;24278;-79
2021/06/28 07:43:38;;;;;;;14.73;3.85;;;;;;;31.62;31.44;100619.47;128036;1098;22404;-77
2021/06/28 07:46:12;;;;;;;5.47;3.50;;;;;;;31.60;30.72;100615.41;128027;1098;22390;-77
2021/06/28 07:48:42;;;;;;;4.80;3.35;;;;;;;31.53;30.78;100604.89;128258;1098;22407;-78
2021/06/28 07:51:12;;;;;;;85.83;13.70;;;;;;;31.48;30.64;100609.63;128269;1098;24582;-79
2021/06/28 07:53:44;;;;;;;10.38;5.85;;;;;;;31.26;31.01;100608.36;128346;1098;22412;-82
2021/06/28 07:56:14;;;;;;;9.23;3.80;;;;;;;30.88;31.87;100613.89;128265;1098;24355;-81
2021/06/28 07:58:48;;;;;;;6.13;4.15;;;;;;;30.71;32.13;100610.86;128286;1098;22407;-81
2021/06/28 08:01:18;;;;;;;55.08;9.80;;;;;;;30.68;32.21;100617.70;128250;1101;22394;-80
2021/06/28 08:03:48;;;;;;;14.53;3.83;;;;;;;30.59;32.98;100615.94;128203;1101;22434;-80
2021/06/28 08:06:21;;;;;;;4.77;2.93;;;;;;;30.66;32.44;100611.77;128235;1099;23279;-80
2021/06/28 08:08:51;;;;;;;4.88;2.83;;;;;;;30.79;32.17;100612.13;127605;1101;22398;-80
2021/06/28 08:11:24;;;;;;;5.20;2.88;;;;;;;30.78;31.60;100622.23;127881;1101;24582;-83
2021/06/28 08:13:55;;;;;;;5.97;3.00;;;;;;;30.61;31.86;100621.92;127774;1103;22695;-80
2021/06/28 08:16:27;;;;;;;4.23;2.85;;;;;;;30.60;32.05;100618.39;127812;1104;22423;-81
2021/06/28 08:18:57;;;;;;;6.85;3.75;;;;;;;30.84;31.53;100618.32;127708;1101;22427;-81
2021/06/28 08:21:40;;;;;;;3.20;2.73;;;;;;;31.08;31.10;100612.74;127754;1101;24384;-81
2021/06/28 08:24:10;;;;;;;8.45;2.73;;;;;;;31.40;31.02;100614.67;127786;1101;22866;-80
2021/06/28 08:26:40;;;;;;;;;;;;;;;31.64;30.12;100619.15;127776;1101;22411;-80
2021/06/28 08:29:10;;;;;;;8.00;2.50;;;;;;;31.81;29.51;100619.34;128213;1100;22994;-80
2021/06/28 08:31:40;;;;;;;4.00;2.83;;;;;;;31.98;29.32;100610.56;127898;1098;22395;-79
2021/06/28 08:34:15;;;;;;;7.75;2.68;;;;;;;32.05;28.77;100619.16;128249;1098;22409;-79
2021/06/28 08:36:46;;;;;;;11.55;3.00;;;;;;;31.93;28.54;100621.62;128258;1098;22394;-80
2021/06/28 08:39:17;;;;;;;3.43;2.85;;;;;;;31.58;28.87;100614.89;128025;1098;22411;-79
2021/06/28 08:41:55;;;;;;;4.03;2.80;;;;;;;31.30;29.30;100614.02;128349;1098;24530;-79
2021/06/28 08:44:25;;;;;;;7.35;3.60;;;;;;;31.09;29.56;100616.27;128337;1098;22404;-80
2021/06/28 08:46:55;;;;;;;5.38;3.60;;;;;;;30.84;30.24;100612.06;128089;1098;22391;-81
2021/06/28 08:49:26;;;;;;;18.93;8.05;;;;;;;30.65;30.76;100621.02;128243;1098;22568;-81
2021/06/28 08:51:57;;;;;;;15.63;7.33;;;;;;;30.53;31.03;100612.50;128291;1098;22567;-82
2021/06/28 08:54:27;;;;;;;30.25;13.48;;;;;;;30.52;31.21;100613.58;127936;1101;24241;-80
2021/06/28 08:56:57;;;;;;;10.33;5.57;;;;;;;30.73;31.06;100610.58;127812;1101;22523;-80
2021/06/28 08:59:27;;;;;;;11.83;3.88;;;;;;;30.93;30.42;100608.36;128241;1101;22423;-81
2021/06/28 09:01:57;;;;;;;8.05;3.60;;;;;;;30.86;30.36;100613.39;127888;1101;22420;-83
2021/06/28 09:04:28;;;;;;;;;;;;;;;30.83;30.51;100608.53;128247;1101;22973;-83
2021/06/28 09:07:20;;;;;;;9.23;3.10;;;;;;;31.00;30.00;100610.71;127991;1099;22042;-82
2021/06/28 09:09:50;;;;;;;5.15;2.60;;;;;;;31.11;29.64;100609.41;128245;1098;22385;-82
2021/06/28 09:12:23;;;;;;;5.00;2.85;;;;;;;31.28;29.31;100611.58;128244;1098;22841;-80
2021/06/28 09:14:57;;;;;;;31.33;12.27;;;;;;;31.45;29.05;100600.11;128366;1098;22379;-82
2021/06/28 09:17:37;;;;;;;12.90;6.53;;;;;;;31.60;29.15;100596.30;128369;1098;23355;-81
2021/06/28 09:20:23;;;;;;;121.68;29.70;;;;;;;31.88;29.50;100606.13;128381;1097;22369;-81
2021/06/28 09:22:53;;;;;;;472.38;216.53;;;;;;;31.89;29.33;100609.69;128227;1099;22534;-81
2021/06/28 09:25:37;;;;;;;49.50;20.90;;;;;;;32.07;29.00;100611.48;128248;1101;22381;-81
2021/06/28 09:28:06;;;;;;;38.53;13.23;;;;;;;32.15;28.74;100606.40;128236;1100;22478;-81
2021/06/28 09:30:44;;;;;;;6.68;4.15;;;;;;;32.17;28.23;100612.38;128222;1101;22423;-80
2021/06/28 09:33:20;;;;;;;4.85;2.60;;;;;;;32.14;28.05;100611.06;128284;1101;22829;-85
2021/06/28 09:35:52;;;;;;;5.73;2.90;;;;;;;32.13;28.08;100603.19;128233;1101;22396;-83
2021/06/28 09:38:39;;;;;;;52.00;8.45;;;;;;;32.05;28.44;100601.95;127959;1101;22421;-83
2021/06/28 09:41:31;;;;;;;6.88;4.93;;;;;;;32.10;28.42;100602.67;128332;1098;22392;-81
2021/06/28 09:44:06;;;;;;;9.10;3.03;;;;;;;32.24;28.07;100596.38;128609;1098;22396;-81
2021/06/28 09:46:37;;;;;;;4.83;2.85;;;;;;;32.42;28.06;100600.89;128374;1098;22398;-82
2021/06/28 09:49:15;;;;;;;5.28;3.43;;;;;;;32.64;26.88;100596.58;128551;1098;22491;-79
2021/06/28 09:51:45;;;;;;;2.95;2.28;;;;;;;32.75;26.85;100597.95;128283;1098;22392;-83
2021/06/28 09:54:18;;;;;;;3.08;2.23;;;;;;;32.64;26.64;100596.58;128267;1098;24320;-85
2021/06/28 09:56:52;;;;;;;5.68;2.68;;;;;;;32.41;26.52;100598.45;128302;1098;22374;-82
2021/06/28 09:59:41;;;;;;;3.63;2.20;;;;;;;32.11;26.98;100598.81;128337;1098;22400;-81
2021/06/28 10:02:28;;;;;;;4.10;3.10;;;;;;;31.82;27.70;100598.30;128218;1098;22735;-80
2021/06/28 10:07:39;;;;;;;3.50;3.08;;;;;;;31.32;28.12;100590.81;127957;1101;23176;-82
2021/06/28 10:10:23;;;;;;;2.98;2.68;;;;;;;31.11;28.35;100593.05;127351;1104;24296;-81
2021/06/28 10:13:07;;;;;;;3.63;2.47;;;;;;;30.80;28.65;100590.03;127904;1101;22423;-79
2021/06/28 10:15:42;;;;;;;3.80;2.18;;;;;;;30.68;29.00;100578.73;127684;1101;22404;-82
2021/06/28 10:18:13;;;;;;;3.25;2.40;;;;;;;30.71;28.74;100589.05;127880;1101;22570;-81
2021/06/28 10:20:47;;;;;;;2.45;2.08;;;;;;;30.79;28.41;100580.23;127915;1101;25146;-81
2021/06/28 10:23:19;;;;;;;2.55;1.98;;;;;;;30.88;28.77;100575.70;127968;1101;24246;-81
2021/06/28 10:25:49;;;;;;;6.00;2.80;;;;;;;30.91;28.67;100583.28;128255;1100;22456;-81
2021/06/28 10:28:20;;;;;;;3.43;2.47;;;;;;;30.83;28.67;100572.27;128281;1098;22840;-80
2021/06/28 10:30:49;;;;;;;7.20;2.55;;;;;;;30.54;29.20;100573.22;128271;1098;23460;-82
2021/06/28 10:33:22;;;;;;;3.07;2.30;;;;;;;30.40;29.16;100578.61;128498;1098;24521;-81
2021/06/28 10:36:04;;;;;;;3.03;2.30;;;;;;;30.37;29.50;100578.39;128488;1098;24531;-80
2021/06/28 10:38:51;;;;;;;2.80;2.45;;;;;;;30.38;29.18;100571.83;128481;1098;22423;-79
2021/06/28 10:41:50;;;;;;;3.30;2.30;;;;;;;30.44;29.04;100582.36;128441;1098;22390;-81
2021/06/28 10:44:25;;;;;;;4.23;1.95;;;;;;;30.51;29.11;100575.73;128497;1098;22511;-80
2021/06/28 10:46:56;;;;;;;2.13;1.68;;;;;;;30.47;29.10;100580.97;128334;1098;22408;-80
2021/06/28 10:49:50;;;;;;;6.68;2.28;;;;;;;30.47;29.29;100576.32;128303;1096;22407;-79
2021/06/28 10:52:38;;;;;;;6.00;2.45;;;;;;;30.45;29.53;100573.06;128254;1098;22390;-80
2021/06/28 10:55:37;;;;;;;5.60;2.75;;;;;;;30.33;29.04;100572.72;128603;1096;22388;-79
2021/06/28 10:58:31;;;;;;;3.93;3.53;;;;;;;30.20;29.42;100576.98;128177;1101;22477;-78
2021/06/28 11:01:09;;;;;;;5.43;2.75;;;;;;;30.13;29.78;100564.80;127681;1101;22393;-81
2021/06/28 11:03:41;;;;;;;;;;;;;;;30.14;30.00;100560.97;127624;1104;22413;-79
2021/06/28 11:06:22;;;;;;;4.58;2.40;;;;;;;30.11;29.97;100561.55;127669;1101;23109;-78
2021/06/28 11:09:03;;;;;;;;;;;;;;;29.93;29.66;100558.52;127582;1105;23339;-78
2021/06/28 11:12:20;;;;;;;3.67;2.80;;;;;;;29.82;30.13;100553.48;127584;1101;21286;-78
2021/06/28 11:15:25;;;;;;;6.73;3.15;;;;;;;29.83;30.59;100563.29;127421;1105;22885;-79
2021/06/28 11:17:58;;;;;;;4.48;3.03;;;;;;;29.80;30.16;100563.88;127142;1103;22431;-78
2021/06/28 11:20:38;;;;;;;4.30;2.43;;;;;;;29.71;30.47;100553.61;127190;1105;23189;-80
2021/06/28 11:23:17;;;;;;;;;;;;;;;29.74;30.34;100571.28;127668;1105;22408;-79
2021/06/28 11:25:59;;;;;;;4.27;2.70;;;;;;;29.77;30.41;100565.25;128027;1104;21282;-78
2021/06/28 11:28:34;;;;;;;4.57;2.80;;;;;;;29.73;30.32;100564.22;127097;1105;22525;-78
2021/06/28 11:31:08;;;;;;;3.93;2.53;;;;;;;29.68;30.33;100570.52;126975;1106;22542;-78
2021/06/28 11:33:48;;;;;;;5.68;3.05;;;;;;;29.70;30.14;100568.33;126935;1108;22481;-78
2021/06/28 11:36:23;;;;;;;4.40;3.67;;;;;;;29.67;30.17;100562.66;127104;1104;22443;-77
2021/06/28 11:38:55;;;;;;;6.98;3.58;;;;;;;29.68;30.71;100561.55;127182;1107;22446;-78